Time;durP1;ratioP1;P1;durP2;ratioP2;P2;SDS_P1;SDS_P2;PMS_P1;PMS_P2;Temp;Humidity;BMP_temperature;BMP_pressure;BME280_temperature;BME280_humidity;BME280_pressure;Samples;Min_cycle;Max_cycle;Signal;HPM_P1;HPM_P2
2023/06/16 00:00:19;;;;;;;14.52;8.32;;;13.60;99.90;;;;;;5090502;28;20028;-72
2023/06/16 00:02:45;;;;;;;13.88;8.57;;;13.60;99.90;;;;;;5089513;28;20032;-72
2023/06/16 00:05:12;;;;;;;15.32;9.00;;;13.40;99.90;;;;;;5090086;28;20036;-72
2023/06/16 00:07:39;;;;;;;12.88;8.68;;;13.40;99.90;;;;;;5089337;28;20028;-73
2023/06/16 00:10:06;;;;;;;14.60;8.48;;;13.30;99.90;;;;;;5090090;28;20517;-73
2023/06/16 00:12:33;;;;;;;17.67;8.73;;;13.40;99.90;;;;;;5089099;28;20032;-72
2023/06/16 00:14:58;;;;;;;13.65;8.20;;;13.50;99.90;;;;;;5089875;28;20082;-73
2023/06/16 00:17:26;;;;;;;17.58;8.40;;;13.60;99.90;;;;;;5089929;28;20074;-72
2023/06/16 00:19:51;;;;;;;13.38;8.75;;;13.60;99.90;;;;;;5089762;28;20020;-73
2023/06/16 00:22:17;;;;;;;14.75;8.10;;;13.30;99.90;;;;;;5089734;28;20441;-73
2023/06/16 00:24:44;;;;;;;14.40;9.05;;;13.20;99.90;;;;;;5088983;28;20047;-73
2023/06/16 00:27:11;;;;;;;12.88;8.43;;;13.20;99.90;;;;;;5089928;28;20138;-72
2023/06/16 00:29:38;;;;;;;15.65;8.45;;;13.30;99.90;;;;;;5088553;28;20371;-72
2023/06/16 00:32:04;;;;;;;13.18;8.60;;;13.30;99.90;;;;;;5089733;28;20065;-72
2023/06/16 00:34:29;;;;;;;13.57;8.70;;;13.10;99.90;;;;;;5088783;28;20032;-72
2023/06/16 00:36:55;;;;;;;14.98;8.38;;;12.90;99.90;;;;;;5089527;28;20111;-72
2023/06/16 00:39:21;;;;;;;14.13;8.60;;;12.90;99.90;;;;;;5089679;28;20024;-73
2023/06/16 00:41:47;;;;;;;13.93;8.50;;;13.00;99.90;;;;;;5088769;28;20034;-73
2023/06/16 00:44:12;;;;;;;15.10;8.95;;;12.90;99.90;;;;;;5089685;28;20110;-72
2023/06/16 00:46:38;;;;;;;15.55;9.60;;;12.80;99.90;;;;;;5088328;28;20515;-72
2023/06/16 00:49:04;;;;;;;14.15;8.70;;;12.60;99.90;;;;;;5089447;28;20078;-72
2023/06/16 00:51:30;;;;;;;15.85;8.82;;;12.60;99.90;;;;;;5088230;28;20016;-72
2023/06/16 00:53:58;;;;;;;14.05;8.45;;;12.60;99.90;;;;;;5089215;28;20044;-73
2023/06/16 00:56:24;;;;;;;13.52;8.63;;;12.70;99.90;;;;;;5089386;28;20114;-72
2023/06/16 00:58:52;;;;;;;16.80;9.07;;;12.70;99.90;;;;;;5088449;28;20628;-72
2023/06/16 01:01:19;;;;;;;13.18;8.73;;;12.80;99.90;;;;;;5089360;28;20024;-73
2023/06/16 01:03:46;;;;;;;16.08;9.10;;;12.80;99.90;;;;;;5088279;28;20024;-72
2023/06/16 01:06:41;;;;;;;13.77;8.35;;;12.70;99.90;;;;;;5089098;28;20094;-72
2023/06/16 01:09:17;;;;;;;16.30;9.02;;;12.60;99.90;;;;;;5089334;28;20064;-73
2023/06/16 01:12:27;;;;;;;16.05;8.57;;;12.40;99.90;;;;;;5088729;28;20032;-72
2023/06/16 01:15:17;;;;;;;13.07;8.30;;;12.30;99.90;;;;;;5088383;28;20040;-72
2023/06/16 01:17:45;;;;;;;15.60;8.87;;;12.50;99.90;;;;;;5088440;28;20089;-72
2023/06/16 01:20:48;;;;;;;17.08;9.25;;;12.60;99.90;;;;;;5088851;28;20056;-74
2023/06/16 01:23:40;;;;;;;14.15;8.57;;;12.70;99.90;;;;;;5084975;28;20043;-73
2023/06/16 01:26:09;;;;;;;13.25;8.68;;;12.80;99.90;;;;;;5088994;28;20353;-72
2023/06/16 01:28:39;;;;;;;14.25;9.18;;;12.80;99.90;;;;;;5088186;28;20056;-73
2023/06/16 01:31:08;;;;;;;15.37;8.70;;;12.80;99.90;;;;;;5088747;28;20379;-73
2023/06/16 01:33:36;;;;;;;15.77;9.82;;;12.80;99.90;;;;;;5088127;28;20353;-73
2023/06/16 01:36:04;;;;;;;14.80;9.00;;;12.70;99.90;;;;;;5088841;28;20032;-74
2023/06/16 01:38:30;;;;;;;14.25;9.27;;;12.70;99.90;;;;;;5087254;28;20020;-72
2023/06/16 01:40:58;;;;;;;12.95;8.52;;;12.70;99.90;;;;;;5091376;28;20107;-73
2023/06/16 01:43:24;;;;;;;13.48;8.57;;;12.60;99.90;;;;;;5093002;28;20021;-73
2023/06/16 01:45:50;;;;;;;15.70;9.05;;;12.50;99.90;;;;;;5091800;28;20035;-73
2023/06/16 01:48:17;;;;;;;14.25;8.48;;;12.50;99.90;;;;;;5093030;28;20024;-73
2023/06/16 01:50:43;;;;;;;13.45;8.50;;;12.50;99.90;;;;;;5091675;28;20484;-73
2023/06/16 01:53:08;;;;;;;16.05;8.85;;;12.50;99.90;;;;;;5092894;28;20024;-73
2023/06/16 01:55:34;;;;;;;15.20;9.30;;;12.60;99.90;;;;;;5091804;28;20358;-72
2023/06/16 01:58:00;;;;;;;14.45;8.90;;;12.70;99.90;;;;;;5092504;28;20088;-73
2023/06/16 02:00:31;;;;;;;13.80;8.80;;;12.80;99.90;;;;;;5092684;28;20032;-73
2023/06/16 02:03:21;;;;;;;13.52;8.80;;;12.80;99.90;;;;;;5092219;28;20020;-73
2023/06/16 02:05:50;;;;;;;14.93;9.45;;;12.90;99.90;;;;;;5091803;28;20396;-74
2023/06/16 02:08:21;;;;;;;17.20;9.50;;;12.90;99.90;;;;;;5092523;28;20032;-74
2023/06/16 02:10:47;;;;;;;13.23;8.82;;;12.90;99.90;;;;;;5091879;28;20621;-73
2023/06/16 02:13:13;;;;;;;15.48;9.63;;;12.90;99.90;;;;;;5092266;28;20059;-73
2023/06/16 02:15:38;;;;;;;16.10;9.20;;;13.00;99.90;;;;;;5091299;28;20404;-73
2023/06/16 02:18:04;;;;;;;15.00;9.35;;;13.00;99.90;;;;;;5092100;28;20035;-74
2023/06/16 02:20:30;;;;;;;16.15;8.77;;;13.00;99.90;;;;;;5092196;28;20031;-74
2023/06/16 02:22:55;;;;;;;14.95;9.30;;;13.00;99.90;;;;;;5091272;28;20085;-74
2023/06/16 02:25:21;;;;;;;14.85;9.02;;;12.90;99.90;;;;;;5092365;28;20036;-74
2023/06/16 02:27:47;;;;;;;16.00;9.02;;;12.80;99.90;;;;;;5091490;28;20047;-73
2023/06/16 02:30:13;;;;;;;16.95;9.40;;;12.60;99.90;;;;;;5092312;28;20030;-74
2023/06/16 02:32:39;;;;;;;14.30;8.55;;;12.40;99.90;;;;;;5091423;28;20047;-74
2023/06/16 02:35:06;;;;;;;13.13;8.63;;;12.20;99.90;;;;;;5091923;28;20364;-73
2023/06/16 02:37:35;;;;;;;14.02;8.57;;;12.10;99.90;;;;;;5091861;28;20387;-73
2023/06/16 02:40:04;;;;;;;13.40;9.00;;;12.10;99.90;;;;;;5091778;28;20017;-73
2023/06/16 02:42:30;;;;;;;16.17;9.45;;;12.00;99.90;;;;;;5091856;28;20028;-73
2023/06/16 02:44:56;;;;;;;15.85;9.02;;;11.90;99.90;;;;;;5091011;28;20027;-74
2023/06/16 02:47:22;;;;;;;14.52;9.07;;;11.90;99.90;;;;;;5091795;28;20048;-73
2023/06/16 02:49:48;;;;;;;17.33;9.40;;;12.00;99.90;;;;;;5091121;28;20107;-73
2023/06/16 02:52:14;;;;;;;14.15;8.95;;;12.00;99.90;;;;;;5091603;28;20031;-73
2023/06/16 02:54:40;;;;;;;14.18;8.90;;;12.00;99.90;;;;;;5090917;28;20028;-73
2023/06/16 02:57:07;;;;;;;15.52;8.90;;;12.10;99.90;;;;;;5091636;28;20024;-73
2023/06/16 02:59:33;;;;;;;17.05;9.35;;;12.20;99.90;;;;;;5091679;28;20024;-72
2023/06/16 03:01:59;;;;;;;15.27;8.88;;;12.20;99.90;;;;;;5091343;28;20485;-73
2023/06/16 03:04:25;;;;;;;16.63;9.73;;;12.20;99.90;;;;;;5091633;28;20032;-73
2023/06/16 03:06:53;;;;;;;14.70;9.18;;;12.20;99.90;;;;;;5090518;28;20039;-73
2023/06/16 03:09:18;;;;;;;13.82;8.90;;;12.00;99.90;;;;;;5091428;28;20036;-74
2023/06/16 03:11:44;;;;;;;14.52;9.13;;;11.90;99.90;;;;;;5090777;28;20031;-74
2023/06/16 03:14:10;;;;;;;13.68;8.90;;;11.80;99.90;;;;;;5091304;28;20031;-73
2023/06/16 03:16:36;;;;;;;14.40;9.27;;;11.90;99.90;;;;;;5090863;28;20081;-72
2023/06/16 03:19:01;;;;;;;16.42;9.55;;;11.90;99.90;;;;;;5091257;28;20099;-74
2023/06/16 03:21:27;;;;;;;13.35;8.80;;;11.90;99.90;;;;;;5091115;28;20055;-74
2023/06/16 03:23:53;;;;;;;14.50;9.20;;;12.00;99.90;;;;;;5090631;28;20192;-73
2023/06/16 03:26:19;;;;;;;14.32;9.32;;;12.00;99.90;;;;;;5091173;28;20384;-74
2023/06/16 03:28:44;;;;;;;14.90;9.25;;;11.90;99.90;;;;;;5090347;28;20031;-73
2023/06/16 03:31:10;;;;;;;18.45;8.93;;;11.90;99.90;;;;;;5091049;28;20031;-74
2023/06/16 03:33:36;;;;;;;15.02;9.10;;;12.00;99.90;;;;;;5090613;28;20430;-72
2023/06/16 03:36:02;;;;;;;14.25;9.20;;;12.00;99.90;;;;;;5090441;28;20433;-73
2023/06/16 03:38:27;;;;;;;16.20;9.32;;;11.80;99.90;;;;;;5090930;28;20059;-73
2023/06/16 03:40:53;;;;;;;14.55;9.32;;;11.60;99.90;;;;;;5090330;28;20081;-73
2023/06/16 03:43:19;;;;;;;15.82;9.30;;;11.60;99.90;;;;;;5090632;28;20039;-73
2023/06/16 03:45:44;;;;;;;17.20;9.00;;;11.60;99.90;;;;;;5089579;28;20034;-73
2023/06/16 03:48:10;;;;;;;16.35;10.15;;;11.70;99.90;;;;;;5089325;28;20028;-73
2023/06/16 03:50:36;;;;;;;16.55;9.63;;;11.60;99.90;;;;;;5090385;28;20114;-73
2023/06/16 03:53:01;;;;;;;16.75;10.00;;;11.60;99.90;;;;;;5090064;28;20830;-73
2023/06/16 03:55:28;;;;;;;15.30;9.52;;;11.70;99.90;;;;;;5090609;28;20031;-73
2023/06/16 03:57:54;;;;;;;16.38;9.82;;;11.70;99.90;;;;;;5089739;28;20016;-73
2023/06/16 04:00:19;;;;;;;14.32;9.88;;;11.70;99.90;;;;;;5090527;28;20090;-73
2023/06/16 04:02:46;;;;;;;15.98;9.60;;;11.70;99.90;;;;;;5089088;28;20396;-73
2023/06/16 04:05:12;;;;;;;15.43;9.50;;;11.80;99.90;;;;;;5090453;28;20035;-73
2023/06/16 04:07:38;;;;;;;16.65;9.82;;;11.90;99.90;;;;;;5090267;28;20093;-72
2023/06/16 04:10:04;;;;;;;13.68;8.73;;;12.00;99.90;;;;;;5089684;28;20052;-73
2023/06/16 04:12:30;;;;;;;15.15;9.70;;;12.10;99.90;;;;;;5090317;28;20111;-72
2023/06/16 04:14:55;;;;;;;16.52;9.50;;;12.10;99.90;;;;;;5089296;28;20115;-72
2023/06/16 04:17:21;;;;;;;16.83;10.65;;;12.10;99.90;;;;;;5090195;28;20032;-72
2023/06/16 04:19:46;;;;;;;17.33;9.70;;;12.10;99.90;;;;;;5089059;28;20834;-72
2023/06/16 04:22:12;;;;;;;18.00;10.18;;;12.00;99.90;;;;;;5089923;28;20036;-73
2023/06/16 04:24:38;;;;;;;19.88;9.70;;;11.90;99.90;;;;;;5089783;28;20111;-71
2023/06/16 04:27:04;;;;;;;15.23;9.35;;;12.00;99.90;;;;;;5121938;27;20453;-72
2023/06/16 04:29:30;;;;;;;18.90;9.82;;;12.20;99.90;;;;;;5089824;28;20107;-72
2023/06/16 04:32:00;;;;;;;17.25;10.60;;;12.40;99.90;;;;;;5088945;28;20413;-72
2023/06/16 04:34:31;;;;;;;16.60;9.98;;;12.50;99.90;;;;;;5089741;28;20040;-72
2023/06/16 04:36:57;;;;;;;13.18;9.00;;;12.60;99.90;;;;;;5088825;28;20032;-72
2023/06/16 04:39:23;;;;;;;18.08;9.48;;;12.70;99.90;;;;;;5089770;28;20364;-72
2023/06/16 04:41:50;;;;;;;13.57;9.30;;;12.80;99.90;;;;;;5089017;28;20465;-72
2023/06/16 04:44:15;;;;;;;16.38;10.15;;;12.90;99.90;;;;;;5089605;28;20036;-73
2023/06/16 04:46:41;;;;;;;16.50;9.90;;;12.80;99.90;;;;;;5089053;28;20542;-71
2023/06/16 04:49:06;;;;;;;18.70;9.98;;;12.70;99.90;;;;;;5089300;28;20609;-72
2023/06/16 04:51:33;;;;;;;15.02;9.50;;;12.80;99.90;;;;;;5089154;28;20035;-72
2023/06/16 04:54:00;;;;;;;17.88;10.90;;;12.80;99.90;;;;;;5088369;28;20044;-72
2023/06/16 04:56:25;;;;;;;15.30;10.05;;;12.90;99.90;;;;;;5089604;28;20110;-72
2023/06/16 04:58:51;;;;;;;22.60;10.52;;;13.00;99.90;;;;;;5088683;28;20099;-72
2023/06/16 05:01:16;;;;;;;18.55;10.00;;;13.00;99.90;;;;;;5089441;28;20035;-72
2023/06/16 05:03:43;;;;;;;16.27;9.82;;;13.00;99.90;;;;;;5088955;28;20203;-71
2023/06/16 05:06:10;;;;;;;15.95;10.27;;;13.20;99.90;;;;;;5089158;28;20060;-72
2023/06/16 05:08:35;;;;;;;17.58;10.23;;;13.30;99.90;;;;;;5089381;28;20050;-72
2023/06/16 05:11:01;;;;;;;14.23;9.85;;;13.50;99.90;;;;;;5088243;28;20020;-72
2023/06/16 05:13:27;;;;;;;18.20;10.38;;;13.80;99.90;;;;;;5089249;28;20035;-72
2023/06/16 05:15:53;;;;;;;15.32;9.57;;;14.20;99.90;;;;;;5087545;28;20044;-72
2023/06/16 05:18:19;;;;;;;16.52;9.90;;;14.40;99.90;;;;;;5089157;28;20028;-72
2023/06/16 05:20:45;;;;;;;18.48;10.90;;;14.60;99.90;;;;;;5088348;28;20209;-71
2023/06/16 05:23:10;;;;;;;17.85;10.07;;;14.70;99.90;;;;;;5089077;28;20073;-72
2023/06/16 05:25:36;;;;;;;14.38;10.15;;;14.80;99.90;;;;;;5089144;28;20107;-72
2023/06/16 05:28:02;;;;;;;17.77;10.00;;;14.90;99.90;;;;;;5088398;28;20119;-72
2023/06/16 05:30:27;;;;;;;14.02;9.32;;;15.10;99.90;;;;;;5088848;28;20389;-72
2023/06/16 05:32:53;;;;;;;17.92;10.20;;;15.20;99.90;;;;;;5086788;28;20028;-72
2023/06/16 05:35:18;;;;;;;15.73;9.55;;;15.20;99.90;;;;;;5088806;28;20043;-72
2023/06/16 05:37:44;;;;;;;15.20;9.63;;;15.20;99.90;;;;;;5088499;28;20360;-72
2023/06/16 05:40:10;;;;;;;13.82;10.18;;;15.20;99.90;;;;;;5088716;28;20358;-72
2023/06/16 05:42:36;;;;;;;17.00;9.90;;;15.20;99.90;;;;;;5087599;28;20051;-72
2023/06/16 05:45:01;;;;;;;17.58;10.38;;;15.20;99.90;;;;;;5088135;28;20066;-72
2023/06/16 05:47:27;;;;;;;15.68;10.02;;;15.20;99.90;;;;;;5088516;28;20075;-72
2023/06/16 05:49:52;;;;;;;17.25;9.57;;;15.20;99.90;;;;;;5088440;28;20507;-72
2023/06/16 05:52:18;;;;;;;18.90;9.82;;;15.30;99.90;;;;;;5088850;28;20028;-72
2023/06/16 05:54:44;;;;;;;18.27;10.20;;;15.40;99.90;;;;;;5088523;28;20082;-72
2023/06/16 05:57:10;;;;;;;16.90;10.45;;;15.50;99.90;;;;;;5088393;28;20055;-72
2023/06/16 05:59:36;;;;;;;15.95;9.90;;;15.50;99.90;;;;;;5088589;28;20433;-72
2023/06/16 06:02:01;;;;;;;14.40;9.68;;;15.50;99.90;;;;;;5087959;28;20115;-72
2023/06/16 06:04:31;;;;;;;15.75;9.48;;;15.60;99.90;;;;;;5088883;28;20039;-72
2023/06/16 06:06:58;;;;;;;15.60;9.25;;;15.70;99.90;;;;;;5087941;28;20031;-72
2023/06/16 06:09:24;;;;;;;13.63;8.65;;;16.00;99.90;;;;;;5088773;28;20032;-72
2023/06/16 06:11:50;;;;;;;14.35;8.82;;;16.10;99.90;;;;;;5088082;28;20028;-71
2023/06/16 06:14:16;;;;;;;12.88;8.50;;;16.30;99.90;;;;;;5088820;28;20058;-71
2023/06/16 06:16:42;;;;;;;18.20;8.90;;;16.50;99.90;;;;;;5088941;28;20043;-71
2023/06/16 06:19:08;;;;;;;12.65;8.10;;;16.70;99.90;;;;;;5088021;28;20978;-71
2023/06/16 06:21:35;;;;;;;14.05;8.38;;;16.90;99.90;;;;;;5088538;28;20024;-71
2023/06/16 06:24:01;;;;;;;13.80;8.32;;;17.00;99.90;;;;;;5087401;28;20464;-71
2023/06/16 06:26:27;;;;;;;13.48;8.27;;;17.20;99.90;;;;;;5090255;28;20077;-71
2023/06/16 06:28:52;;;;;;;15.35;8.40;;;17.30;99.90;;;;;;5091760;28;20027;-71
2023/06/16 06:31:18;;;;;;;13.80;8.63;;;17.50;99.90;;;;;;5092031;28;20027;-71
2023/06/16 06:33:45;;;;;;;16.00;8.57;;;17.60;99.90;;;;;;5092210;28;20028;-71
2023/06/16 06:36:11;;;;;;;15.20;8.50;;;17.70;99.90;;;;;;5089889;28;20035;-71
2023/06/16 06:38:37;;;;;;;15.20;8.90;;;17.80;99.90;;;;;;5092086;28;20028;-71
2023/06/16 06:41:03;;;;;;;13.25;7.88;;;17.90;99.90;;;;;;5124168;27;20058;-71
2023/06/16 06:43:28;;;;;;;14.93;8.60;;;18.10;99.90;;;;;;5092138;28;20451;-71
2023/06/16 06:45:54;;;;;;;11.95;8.20;;;18.10;99.90;;;;;;5091074;28;20039;-71
2023/06/16 06:48:20;;;;;;;15.00;8.02;;;18.20;99.90;;;;;;5092315;28;20036;-71
2023/06/16 06:50:48;;;;;;;12.68;8.50;;;18.30;99.90;;;;;;5091916;28;20027;-70
2023/06/16 06:53:13;;;;;;;14.75;8.50;;;18.40;99.90;;;;;;5091190;28;20093;-71
2023/06/16 06:55:39;;;;;;;14.23;7.82;;;18.40;99.90;;;;;;5091526;28;20473;-71
2023/06/16 06:58:05;;;;;;;14.93;8.07;;;18.60;99.90;;;;;;5090989;28;20032;-72
2023/06/16 07:00:30;;;;;;;13.25;8.27;;;18.70;99.90;;;;;;5091710;28;20111;-70
2023/06/16 07:02:56;;;;;;;12.65;8.30;;;18.90;99.90;;;;;;5090883;28;20457;-71
2023/06/16 07:05:22;;;;;;;13.85;7.93;;;19.00;99.90;;;;;;5091296;28;20032;-71
2023/06/16 07:07:47;;;;;;;11.65;7.82;;;19.10;99.90;;;;;;5091497;28;20039;-71
2023/06/16 07:10:13;;;;;;;20.70;8.23;;;19.20;99.90;;;;;;5090676;28;20032;-70
2023/06/16 07:12:38;;;;;;;16.08;8.30;;;19.40;99.90;;;;;;5091466;28;20054;-71
2023/06/16 07:15:05;;;;;;;19.45;8.02;;;19.40;99.90;;;;;;5090235;28;20086;-71
2023/06/16 07:17:31;;;;;;;16.25;8.35;;;19.50;99.90;;;;;;5091281;28;20105;-70
2023/06/16 07:19:57;;;;;;;12.23;8.02;;;19.40;99.90;;;;;;5090605;28;20107;-72
2023/06/16 07:22:22;;;;;;;13.88;8.18;;;19.60;99.90;;;;;;5091022;28;20118;-70
2023/06/16 07:24:48;;;;;;;15.05;8.23;;;19.70;99.90;;;;;;5090964;28;20039;-70
2023/06/16 07:27:14;;;;;;;15.82;7.72;;;19.80;99.90;;;;;;5090229;28;20127;-70
2023/06/16 07:29:40;;;;;;;13.40;7.28;;;19.90;99.90;;;;;;5091021;28;20032;-70
2023/06/16 07:32:06;;;;;;;13.73;7.30;;;20.10;99.90;;;;;;5090214;28;20024;-71
2023/06/16 07:34:33;;;;;;;12.10;7.05;;;20.20;97.60;;;;;;5090935;28;20043;-71
2023/06/16 07:36:58;;;;;;;9.45;7.00;;;20.30;96.80;;;;;;5089629;28;20450;-71
2023/06/16 07:39:24;;;;;;;25.17;8.38;;;20.30;98.20;;;;;;5090400;28;20111;-70
2023/06/16 07:41:50;;;;;;;10.05;6.45;;;20.40;98.20;;;;;;5090723;28;20510;-70
2023/06/16 07:44:15;;;;;;;10.50;6.97;;;20.50;96.80;;;;;;5090044;28;20063;-70
2023/06/16 07:46:45;;;;;;;13.45;7.30;;;20.70;98.60;;;;;;5090719;28;20527;-70
2023/06/16 07:49:12;;;;;;;12.60;7.32;;;21.00;96.80;;;;;;5089979;28;20103;-69
2023/06/16 07:51:38;;;;;;;10.02;6.60;;;21.10;95.70;;;;;;5090603;28;20024;-70
2023/06/16 07:54:04;;;;;;;13.52;6.93;;;21.10;95.60;;;;;;5089604;28;20532;-70
2023/06/16 07:56:29;;;;;;;9.60;6.68;;;21.10;94.80;;;;;;5090646;28;20039;-70
2023/06/16 07:58:55;;;;;;;11.38;6.90;;;21.10;95.90;;;;;;5089687;28;20028;-70
2023/06/16 08:01:21;;;;;;;9.85;6.80;;;21.20;95.10;;;;;;5090584;28;20080;-70
2023/06/16 08:03:48;;;;;;;11.32;6.45;;;21.30;93.20;;;;;;5090524;28;20103;-70
2023/06/16 08:06:15;;;;;;;12.10;6.85;;;21.40;93.90;;;;;;5089577;28;20020;-70
2023/06/16 08:08:40;;;;;;;14.10;6.60;;;21.40;94.90;;;;;;5090082;28;20108;-69
2023/06/16 08:11:07;;;;;;;10.43;6.60;;;21.60;92.00;;;;;;5089471;28;20099;-70
2023/06/16 08:13:33;;;;;;;13.48;6.40;;;21.70;92.10;;;;;;5090430;28;20123;-70
2023/06/16 08:15:59;;;;;;;11.20;6.00;;;21.80;91.00;;;;;;5089271;28;20075;-70
2023/06/16 08:18:25;;;;;;;15.25;6.25;;;21.90;92.50;;;;;;5090031;28;20028;-71
2023/06/16 08:20:52;;;;;;;10.75;6.20;;;22.10;92.20;;;;;;5090318;28;20047;-71
2023/06/16 08:23:17;;;;;;;12.18;5.10;;;22.50;89.30;;;;;;5089132;28;20422;-70
2023/06/16 08:25:43;;;;;;;8.68;4.70;;;22.80;76.20;;;;;;5090031;28;20024;-71
2023/06/16 08:28:09;;;;;;;13.20;5.03;;;23.20;76.40;;;;;;5089289;28;20051;-71
2023/06/16 08:30:35;;;;;;;12.18;5.30;;;23.50;73.00;;;;;;5089666;28;20476;-71
2023/06/16 08:33:01;;;;;;;10.60;5.05;;;23.80;70.40;;;;;;5089168;28;20024;-71
2023/06/16 08:35:28;;;;;;;8.68;5.20;;;24.10;70.00;;;;;;5089572;28;20621;-70
2023/06/16 08:37:53;;;;;;;7.97;5.00;;;24.20;70.30;;;;;;5089491;28;20042;-70
2023/06/16 08:40:19;;;;;;;10.18;5.22;;;24.30;63.70;;;;;;5089037;28;20110;-71
2023/06/16 08:42:46;;;;;;;8.77;5.03;;;24.50;63.30;;;;;;5089646;28;20031;-71
2023/06/16 08:45:13;;;;;;;9.95;4.57;;;24.60;65.70;;;;;;5088809;28;20406;-70
2023/06/16 08:47:38;;;;;;;9.32;5.18;;;24.80;62.00;;;;;;5089300;28;20052;-71
2023/06/16 08:50:09;;;;;;;10.00;4.95;;;24.70;62.20;;;;;;5088817;28;20039;-70
2023/06/16 08:52:40;;;;;;;9.55;5.40;;;24.60;59.10;;;;;;5089838;28;20032;-70
2023/06/16 08:55:13;;;;;;;10.27;5.40;;;24.60;60.10;;;;;;5088696;28;20115;-70
2023/06/16 08:57:47;;;;;;;7.78;5.13;;;24.70;59.60;;;;;;5089572;28;20066;-70
2023/06/16 09:00:17;;;;;;;10.55;5.80;;;24.80;57.80;;;;;;5088826;28;20024;-70
2023/06/16 09:02:48;;;;;;;10.70;4.90;;;24.80;58.20;;;;;;5089473;28;20136;-71
2023/06/16 09:05:15;;;;;;;6.78;4.70;;;25.00;59.20;;;;;;5088542;28;20814;-70
2023/06/16 09:07:41;;;;;;;9.75;5.00;;;25.20;55.40;;;;;;5089075;28;20111;-70
2023/06/16 09:10:10;;;;;;;10.52;5.00;;;25.10;56.20;;;;;;5088631;28;20099;-70
2023/06/16 09:12:36;;;;;;;13.65;5.53;;;25.40;57.10;;;;;;5089384;28;20088;-70
2023/06/16 09:15:08;;;;;;;8.45;5.32;;;25.70;56.40;;;;;;5088162;28;20040;-71
2023/06/16 09:17:34;;;;;;;10.07;5.35;;;25.90;56.00;;;;;;5089216;28;20077;-71
2023/06/16 09:20:01;;;;;;;10.25;5.00;;;26.00;55.00;;;;;;5088521;28;20064;-71
2023/06/16 09:22:28;;;;;;;9.05;5.22;;;26.20;56.00;;;;;;5089066;28;20029;-71
2023/06/16 09:24:58;;;;;;;11.05;5.20;;;26.30;55.20;;;;;;5089038;28;20031;-72
2023/06/16 09:27:50;;;;;;;8.32;4.75;;;26.10;53.60;;;;;;5104469;28;20453;-71
2023/06/16 09:30:20;;;;;;;11.50;5.63;;;26.10;56.00;;;;;;5088369;28;20020;-71
2023/06/16 09:32:51;;;;;;;8.70;5.65;;;26.10;54.10;;;;;;5089080;28;20457;-71
2023/06/16 09:35:22;;;;;;;12.77;5.60;;;26.00;53.00;;;;;;5086899;28;20047;-71
2023/06/16 09:38:03;;;;;;;8.20;5.35;;;26.30;54.30;;;;;;5088798;28;20114;-70
2023/06/16 09:40:31;;;;;;;14.35;5.63;;;26.20;51.70;;;;;;5088943;28;20039;-70
2023/06/16 09:42:59;;;;;;;9.00;5.10;;;26.00;53.80;;;;;;5088803;28;20024;-71
2023/06/16 09:45:31;;;;;;;8.02;5.43;;;26.30;55.20;;;;;;5088925;28;20032;-70
2023/06/16 09:48:01;;;;;;;13.60;5.78;;;26.60;55.00;;;;;;5088818;28;20056;-70
2023/06/16 09:50:27;;;;;;;14.00;5.20;;;26.70;54.00;;;;;;5089000;28;20024;-70
2023/06/16 09:52:56;;;;;;;12.32;5.30;;;26.30;55.20;;;;;;5088747;28;20436;-70
2023/06/16 09:55:26;;;;;;;8.45;5.68;;;26.30;53.70;;;;;;5088053;28;20040;-70
2023/06/16 09:57:51;;;;;;;15.63;5.80;;;26.20;54.40;;;;;;5088872;28;20070;-70
2023/06/16 10:00:17;;;;;;;21.63;5.88;;;25.40;53.20;;;;;;5088037;28;20099;-71
2023/06/16 10:02:48;;;;;;;11.00;6.05;;;24.80;55.60;;;;;;5125552;27;20032;-70
2023/06/16 10:05:16;;;;;;;9.15;5.15;;;24.30;56.40;;;;;;5091890;28;20040;-70
2023/06/16 10:07:51;;;;;;;8.30;5.63;;;24.30;58.80;;;;;;5092536;28;20483;-70
2023/06/16 10:10:21;;;;;;;13.45;5.97;;;24.40;56.00;;;;;;5091797;28;20028;-70
2023/06/16 10:12:49;;;;;;;12.70;6.35;;;24.60;58.60;;;;;;5092723;28;20039;-71
2023/06/16 10:15:25;;;;;;;12.35;5.30;;;25.10;57.40;;;;;;5091794;28;20043;-71
2023/06/16 10:17:53;;;;;;;14.75;5.78;;;25.30;58.30;;;;;;5092422;28;20036;-71
2023/06/16 10:20:25;;;;;;;9.10;5.63;;;25.00;56.90;;;;;;5091590;28;20024;-71
2023/06/16 10:22:51;;;;;;;9.43;5.38;;;24.70;57.60;;;;;;5092390;28;20483;-71
2023/06/16 10:25:18;;;;;;;11.73;5.55;;;25.10;58.00;;;;;;5091521;28;20032;-71
2023/06/16 10:27:44;;;;;;;7.07;5.05;;;25.60;58.60;;;;;;5092661;28;20034;-71
2023/06/16 10:30:19;;;;;;;9.50;5.78;;;26.00;54.80;;;;;;5091448;28;20020;-73
2023/06/16 10:32:49;;;;;;;14.93;5.38;;;26.10;53.80;;;;;;5092216;28;20020;-70
2023/06/16 10:35:16;;;;;;;21.42;5.85;;;25.40;53.50;;;;;;5091247;28;20036;-70
2023/06/16 10:37:42;;;;;;;13.32;5.45;;;25.20;52.30;;;;;;5092285;28;20109;-69
2023/06/16 10:40:12;;;;;;;8.18;5.22;;;25.00;54.50;;;;;;5091142;28;20086;-70
2023/06/16 10:42:40;;;;;;;12.00;5.35;;;25.20;53.70;;;;;;5092122;28;20024;-70
2023/06/16 10:45:26;;;;;;;12.52;5.57;;;25.70;54.20;;;;;;5091012;28;20476;-70
2023/06/16 10:47:58;;;;;;;8.93;5.10;;;25.40;53.70;;;;;;5124561;27;20500;-70
2023/06/16 10:50:39;;;;;;;11.35;5.53;;;25.20;54.20;;;;;;5091096;28;20081;-70
2023/06/16 10:53:13;;;;;;;8.88;5.20;;;25.40;55.20;;;;;;5090703;28;20032;-71
2023/06/16 10:55:44;;;;;;;9.95;5.15;;;25.60;56.50;;;;;;5091670;28;20043;-72
2023/06/16 10:58:16;;;;;;;15.05;5.60;;;25.90;54.10;;;;;;5090984;28;20035;-70
2023/06/16 11:01:19;;;;;;;14.32;5.45;;;25.70;53.10;;;;;;5091705;28;20111;-72
2023/06/16 11:03:45;;;;;;;8.55;5.38;;;25.50;56.40;;;;;;5091620;28;20036;-71
2023/06/16 11:06:12;;;;;;;9.10;5.50;;;25.60;56.20;;;;;;5090634;28;20396;-72
2023/06/16 11:08:58;;;;;;;11.52;5.65;;;26.00;59.30;;;;;;5091187;28;20028;-71
2023/06/16 11:11:33;;;;;;;7.10;5.10;;;26.10;52.80;;;;;;5090605;28;20476;-71
2023/06/16 11:14:00;;;;;;;11.13;6.05;;;25.50;54.40;;;;;;5090042;28;20369;-71
2023/06/16 11:16:27;;;;;;;9.90;5.97;;;24.90;57.20;;;;;;5090813;28;20081;-72
2023/06/16 11:18:54;;;;;;;8.60;5.55;;;25.20;53.00;;;;;;5091184;28;20031;-72
2023/06/16 11:21:21;;;;;;;10.93;5.68;;;25.40;55.00;;;;;;5090451;28;20492;-71
2023/06/16 11:23:46;;;;;;;11.60;6.38;;;25.60;53.30;;;;;;5090899;28;20381;-71
2023/06/16 11:26:17;;;;;;;8.48;5.40;;;25.80;54.80;;;;;;5090649;28;20043;-71
2023/06/16 11:28:43;;;;;;;9.30;5.85;;;26.10;54.90;;;;;;5091364;28;20798;-72
2023/06/16 11:31:10;;;;;;;7.60;5.43;;;25.60;52.60;;;;;;5090166;28;20028;-72
2023/06/16 11:33:37;;;;;;;10.07;6.10;;;25.40;53.10;;;;;;5091054;28;20024;-72
2023/06/16 11:36:17;;;;;;;11.55;5.95;;;25.50;52.20;;;;;;5090817;28;20682;-71
2023/06/16 11:38:44;;;;;;;10.70;5.93;;;25.80;50.70;;;;;;5090884;28;20418;-71
2023/06/16 11:41:25;;;;;;;9.23;6.22;;;25.20;54.80;;;;;;5089925;28;20058;-71
2023/06/16 11:43:51;;;;;;;9.82;5.90;;;25.00;55.50;;;;;;5090950;28;20020;-72
2023/06/16 11:46:23;;;;;;;10.70;6.07;;;25.70;56.30;;;;;;5122293;27;20058;-72
2023/06/16 11:48:49;;;;;;;9.30;5.70;;;26.40;52.90;;;;;;5090897;28;20105;-72
2023/06/16 11:51:15;;;;;;;8.40;5.65;;;26.30;53.30;;;;;;5089753;28;20346;-71
2023/06/16 11:53:41;;;;;;;16.20;6.10;;;26.20;55.10;;;;;;5090477;28;20027;-72
2023/06/16 11:56:08;;;;;;;11.38;6.05;;;26.90;53.80;;;;;;5089804;28;20036;-71
2023/06/16 11:58:34;;;;;;;8.13;5.88;;;26.60;52.90;;;;;;5090457;28;20031;-71
2023/06/16 12:01:02;;;;;;;9.48;5.90;;;25.80;53.20;;;;;;5090491;28;20106;-71
2023/06/16 12:03:29;;;;;;;10.55;6.50;;;25.10;53.80;;;;;;5089670;28;20020;-71
2023/06/16 12:05:56;;;;;;;11.68;5.90;;;24.60;55.80;;;;;;5090772;28;20085;-72
2023/06/16 12:08:45;;;;;;;12.30;6.13;;;24.50;56.90;;;;;;5089380;28;20027;-71
2023/06/16 12:11:16;;;;;;;10.18;6.07;;;24.90;58.90;;;;;;5089348;28;20380;-71
2023/06/16 12:13:42;;;;;;;10.05;6.18;;;25.30;57.10;;;;;;5090554;28;20035;-71
2023/06/16 12:16:11;;;;;;;14.18;6.22;;;25.60;58.50;;;;;;5089624;28;20043;-72
2023/06/16 12:18:37;;;;;;;10.13;6.13;;;26.30;55.60;;;;;;5122937;27;20058;-72
2023/06/16 12:21:24;;;;;;;11.13;6.55;;;26.70;54.60;;;;;;5090184;28;20028;-72
2023/06/16 12:23:55;;;;;;;13.32;6.45;;;26.70;55.30;;;;;;5089272;28;20027;-72
2023/06/16 12:26:26;;;;;;;8.77;5.60;;;26.40;54.90;;;;;;5089541;28;20077;-72
2023/06/16 12:28:56;;;;;;;14.48;6.15;;;26.20;57.60;;;;;;5090083;28;20035;-73
2023/06/16 12:31:26;;;;;;;12.45;6.05;;;26.20;59.10;;;;;;5088986;28;20052;-71
2023/06/16 12:33:56;;;;;;;9.35;5.78;;;26.40;55.90;;;;;;5090192;28;20032;-71
2023/06/16 12:36:22;;;;;;;12.32;6.25;;;26.80;58.60;;;;;;5089116;28;20433;-71
2023/06/16 12:38:50;;;;;;;12.32;5.63;;;27.10;55.50;;;;;;5089484;28;20119;-71
2023/06/16 12:41:17;;;;;;;13.18;6.05;;;27.20;56.00;;;;;;5088611;28;20376;-70